Time;durP1;ratioP1;P1;durP2;ratioP2;P2;SDS_P1;SDS_P2;PMS_P1;PMS_P2;Temp;Humidity;BMP_temperature;BMP_pressure;BME280_temperature;BME280_humidity;BME280_pressure;Samples;Min_cycle;Max_cycle;Signal;HPM_P1;HPM_P2
2023/01/10 00:01:18;;;;;;;1.80;1.10;;;8.10;48.10;;;;;;4995267;28;20235;-70
2023/01/10 00:03:43;;;;;;;1.87;1.13;;;7.80;50.10;;;;;;5000689;28;20258;-72
2023/01/10 00:06:09;;;;;;;1.80;1.10;;;7.90;49.00;;;;;;4999773;28;20182;-71
2023/01/10 00:08:34;;;;;;;1.90;1.20;;;7.50;51.30;;;;;;4999077;28;20181;-71
2023/01/10 00:13:22;;;;;;;1.80;1.10;;;7.80;51.30;;;;;;4982809;28;20230;-70
2023/01/10 00:13:45;;;;;;;1.70;1.05;;;8.10;48.10;;;;;;4987235;28;20627;-70
2023/01/10 00:16:11;;;;;;;1.90;1.20;;;7.60;51.20;;;;;;5003122;28;20667;-70
2023/01/10 00:18:37;;;;;;;1.80;1.10;;;7.80;51.00;;;;;;4983810;28;20560;-71
2023/01/10 00:21:02;;;;;;;1.80;1.10;;;8.50;49.00;;;;;;5004615;28;20205;-71
2023/01/10 00:23:28;;;;;;;2.00;1.30;;;8.30;47.80;;;;;;4995779;28;20196;-71
2023/01/10 00:25:53;;;;;;;1.90;1.10;;;8.20;49.30;;;;;;5000007;28;20636;-71
2023/01/10 00:28:19;;;;;;;1.80;1.10;;;8.60;48.40;;;;;;4994573;28;20177;-72
2023/01/10 00:31:05;;;;;;;1.73;1.10;;;8.70;47.70;;;;;;4991758;28;20194;-72
2023/01/10 00:33:35;;;;;;;1.80;1.10;;;8.30;48.80;;;;;;4991447;28;20181;-72
2023/01/10 00:36:03;;;;;;;1.80;1.30;;;8.40;48.60;;;;;;4988827;28;20208;-73
2023/01/10 00:38:29;;;;;;;1.80;1.10;;;8.30;49.20;;;;;;4987475;28;20577;-71
2023/01/10 00:40:55;;;;;;;2.85;2.03;;;8.60;48.40;;;;;;4991152;28;20212;-73
2023/01/10 00:46:07;;;;;;;1.80;1.10;;;8.20;48.70;;;;;;5006367;28;20439;-71
2023/01/10 00:48:32;;;;;;;1.75;1.10;;;7.40;53.20;;;;;;5003619;28;20177;-72
2023/01/10 00:50:58;;;;;;;2.17;1.30;;;7.80;52.60;;;;;;5011377;28;20208;-72
2023/01/10 00:53:24;;;;;;;1.80;1.17;;;8.30;52.20;;;;;;5005473;28;20618;-70
2023/01/10 00:55:49;;;;;;;1.90;1.20;;;8.30;50.70;;;;;;4990441;28;20228;-72
2023/01/10 00:58:16;;;;;;;1.80;1.10;;;8.00;50.60;;;;;;4999565;28;20264;-72
2023/01/10 01:00:48;;;;;;;1.80;1.20;;;7.80;51.60;;;;;;5002143;28;20228;-72
2023/01/10 01:03:15;;;;;;;1.80;1.15;;;7.90;50.60;;;;;;5008293;28;20201;-71
2023/01/10 01:05:42;;;;;;;1.80;1.10;;;7.70;53.00;;;;;;5002821;28;20180;-73
2023/01/10 01:08:09;;;;;;;1.80;1.10;;;7.90;50.60;;;;;;4996636;28;20188;-72
2023/01/10 01:10:34;;;;;;;1.90;1.27;;;7.80;52.30;;;;;;4999004;28;20185;-72
2023/01/10 01:13:07;;;;;;;1.80;1.10;;;8.30;51.70;;;;;;5005874;28;20292;-71
2023/01/10 01:15:34;;;;;;;1.80;1.10;;;7.90;51.50;;;;;;4994261;28;20240;-71
2023/01/10 01:17:59;;;;;;;1.80;1.02;;;8.10;50.70;;;;;;5010354;28;20215;-72
2023/01/10 01:20:25;;;;;;;1.90;1.23;;;8.30;49.00;;;;;;5010195;28;20697;-72
2023/01/10 01:22:51;;;;;;;1.80;1.10;;;8.80;49.70;;;;;;4994412;28;20178;-72
2023/01/10 01:25:17;;;;;;;1.70;1.00;;;7.60;51.50;;;;;;4988587;28;20441;-71
2023/01/10 01:27:43;;;;;;;1.73;1.00;;;7.70;52.10;;;;;;4993782;28;20845;-71
2023/01/10 01:30:10;;;;;;;1.80;1.10;;;7.80;52.60;;;;;;5010002;28;20189;-72
2023/01/10 01:32:36;;;;;;;2.03;1.30;;;7.00;58.20;;;;;;4999795;28;20216;-72
2023/01/10 01:35:02;;;;;;;1.73;1.03;;;7.50;56.10;;;;;;4990946;28;20186;-72
2023/01/10 01:37:27;;;;;;;1.80;1.10;;;7.70;54.10;;;;;;4997164;28;20178;-70
2023/01/10 01:39:53;;;;;;;1.80;1.10;;;8.10;52.20;;;;;;4984154;28;20726;-72
2023/01/10 01:42:26;;;;;;;1.90;1.20;;;8.00;52.80;;;;;;4995258;28;20215;-72
2023/01/10 01:45:07;;;;;;;1.80;1.10;;;8.30;52.10;;;;;;5020084;28;20623;-72
2023/01/10 01:47:36;;;;;;;1.90;1.20;;;8.30;51.00;;;;;;4993858;28;20186;-72
2023/01/10 01:50:03;;;;;;;1.90;1.20;;;8.50;50.40;;;;;;4997481;28;20186;-72
2023/01/10 01:52:33;;;;;;;1.80;1.00;;;8.60;49.90;;;;;;4999276;28;20644;-70
2023/01/10 01:55:01;;;;;;;1.80;1.10;;;8.60;49.10;;;;;;4999423;28;20598;-72
2023/01/10 01:57:30;;;;;;;1.70;1.00;;;8.30;51.50;;;;;;4999614;28;20229;-72
2023/01/10 01:59:56;;;;;;;1.80;1.10;;;8.20;51.10;;;;;;5005276;28;20198;-72
2023/01/10 02:02:28;;;;;;;1.80;1.10;;;8.60;50.10;;;;;;4983642;28;20575;-72
2023/01/10 02:05:01;;;;;;;1.80;1.10;;;8.50;50.50;;;;;;4987904;28;20429;-72
2023/01/10 02:07:32;;;;;;;1.75;1.02;;;6.80;52.70;;;;;;4988528;28;20179;-73
2023/01/10 02:10:04;;;;;;;3.65;1.50;;;8.20;53.00;;;;;;5000679;28;20224;-72
2023/01/10 02:12:32;;;;;;;1.90;1.23;;;8.50;52.40;;;;;;4992906;28;20256;-72
2023/01/10 02:14:58;;;;;;;1.80;1.10;;;8.40;51.50;;;;;;4992285;28;20264;-72
2023/01/10 02:17:24;;;;;;;1.80;1.10;;;8.90;50.20;;;;;;4997264;28;20182;-72
2023/01/10 02:19:54;;;;;;;1.90;1.20;;;8.90;48.60;;;;;;5001622;28;20292;-72
2023/01/10 02:23:03;;;;;;;1.80;1.10;;;9.00;48.70;;;;;;5002723;28;20229;-73
2023/01/10 02:25:50;;;;;;;1.80;1.10;;;9.20;48.30;;;;;;5014966;28;20169;-71
2023/01/10 02:28:53;;;;;;;1.70;1.10;;;9.40;47.30;;;;;;5008992;28;20181;-72
2023/01/10 02:31:27;;;;;;;1.80;1.17;;;9.50;46.40;;;;;;5000093;28;20299;-72
2023/01/10 02:34:16;;;;;;;1.80;1.10;;;9.60;46.70;;;;;;4986218;28;20181;-72
2023/01/10 02:36:45;;;;;;;1.80;1.10;;;9.50;46.30;;;;;;4953644;28;20653;-72
2023/01/10 02:39:21;;;;;;;1.70;1.00;;;9.50;46.00;;;;;;4993105;28;20678;-72
2023/01/10 02:41:59;;;;;;;1.75;1.10;;;8.90;46.90;;;;;;4990639;28;20193;-72
2023/01/10 02:44:34;;;;;;;1.80;1.20;;;8.70;49.10;;;;;;4987795;28;20738;-72
2023/01/10 02:47:03;;;;;;;1.80;1.10;;;8.50;50.80;;;;;;4997361;28;20172;-72
2023/01/10 02:49:28;;;;;;;1.70;1.10;;;8.00;52.90;;;;;;4992129;28;20593;-73
2023/01/10 02:51:55;;;;;;;4.73;1.63;;;8.40;50.80;;;;;;4998180;28;20205;-73
2023/01/10 02:54:26;;;;;;;1.70;1.00;;;8.60;49.90;;;;;;4998453;28;20182;-72
2023/01/10 02:57:13;;;;;;;4.03;1.75;;;8.30;50.20;;;;;;4998324;28;20328;-72
2023/01/10 03:00:01;;;;;;;1.80;1.10;;;7.90;52.70;;;;;;5003823;28;20225;-70
2023/01/10 03:02:47;;;;;;;1.77;1.15;;;7.60;53.30;;;;;;5001356;28;20698;-73
2023/01/10 03:05:39;;;;;;;1.90;1.20;;;7.60;55.20;;;;;;5002119;28;20178;-71
2023/01/10 03:08:10;;;;;;;1.80;1.10;;;7.70;54.00;;;;;;4988028;28;20566;-72
2023/01/10 03:10:46;;;;;;;1.80;1.10;;;7.40;54.70;;;;;;4991495;28;20263;-71
2023/01/10 03:13:19;;;;;;;1.80;1.15;;;8.00;54.30;;;;;;4997255;28;20181;-72
2023/01/10 03:15:47;;;;;;;1.80;1.10;;;8.10;51.30;;;;;;5000408;28;20177;-73
2023/01/10 03:18:32;;;;;;;2.10;1.50;;;7.90;51.20;;;;;;4997521;28;20174;-72
2023/01/10 03:21:01;;;;;;;1.80;1.10;;;7.20;55.20;;;;;;4993291;28;20224;-70
2023/01/10 03:23:27;;;;;;;1.70;1.00;;;6.90;58.30;;;;;;5000881;28;20209;-73
2023/01/10 03:25:56;;;;;;;1.85;1.17;;;6.90;58.50;;;;;;4993433;28;20170;-73
2023/01/10 03:28:32;;;;;;;1.80;1.20;;;6.90;60.20;;;;;;4993950;28;20261;-73
2023/01/10 03:31:03;;;;;;;1.80;1.10;;;6.60;59.90;;;;;;5003180;28;20201;-72
2023/01/10 03:33:32;;;;;;;1.83;1.13;;;6.80;60.00;;;;;;5002060;28;20220;-73
2023/01/10 03:36:25;;;;;;;1.80;1.10;;;7.70;56.00;;;;;;4993038;28;20186;-73
2023/01/10 03:38:53;;;;;;;1.80;1.10;;;7.60;54.50;;;;;;4986463;28;20240;-71
2023/01/10 03:41:27;;;;;;;1.83;1.13;;;7.30;53.70;;;;;;4993062;28;20230;-73
2023/01/10 03:46:56;;;;;;;1.80;1.10;;;6.50;59.30;;;;;;4980497;28;20695;-73
2023/01/10 03:49:23;;;;;;;1.80;1.10;;;6.40;61.00;;;;;;4993307;28;20173;-73
2023/01/10 03:51:50;;;;;;;1.80;1.10;;;6.80;58.30;;;;;;4993439;28;20209;-72
2023/01/10 03:54:16;;;;;;;1.80;1.10;;;7.00;57.60;;;;;;5001850;28;20189;-73
2023/01/10 03:56:50;;;;;;;1.92;1.20;;;7.40;55.20;;;;;;4992510;28;20193;-73
2023/01/10 03:59:22;;;;;;;1.70;1.10;;;7.80;53.20;;;;;;4992677;28;20717;-72
2023/01/10 04:01:47;;;;;;;1.80;1.13;;;7.60;53.70;;;;;;4994153;28;20210;-72
2023/01/10 04:04:13;;;;;;;1.80;1.10;;;7.40;53.50;;;;;;5002641;28;20536;-70
2023/01/10 04:06:39;;;;;;;1.80;1.10;;;7.30;55.80;;;;;;5004290;28;20188;-70
2023/01/10 04:09:05;;;;;;;1.80;1.10;;;7.50;54.90;;;;;;4995413;28;20265;-71
2023/01/10 04:11:31;;;;;;;1.80;1.20;;;7.40;55.40;;;;;;4992445;28;20730;-72
2023/01/10 04:13:56;;;;;;;1.80;1.10;;;6.80;57.70;;;;;;4991835;28;20220;-72
2023/01/10 04:16:22;;;;;;;1.80;1.10;;;7.00;57.70;;;;;;5000741;28;20185;-72
2023/01/10 04:18:47;;;;;;;1.90;1.27;;;6.70;59.60;;;;;;5001780;28;20187;-72
2023/01/10 04:21:13;;;;;;;1.80;1.10;;;6.10;65.10;;;;;;4977310;28;20241;-72
2023/01/10 04:23:39;;;;;;;1.80;1.10;;;6.30;66.60;;;;;;4991938;28;20231;-71
2023/01/10 04:26:04;;;;;;;1.70;1.00;;;6.20;67.40;;;;;;4998546;28;20252;-71
2023/01/10 04:28:30;;;;;;;1.90;1.20;;;6.20;69.10;;;;;;5003530;28;20181;-71
2023/01/10 04:30:55;;;;;;;2.10;1.33;;;6.00;69.30;;;;;;4991478;28;20225;-72
2023/01/10 04:33:21;;;;;;;1.80;1.10;;;6.30;69.20;;;;;;4992168;28;20667;-72
2023/01/10 04:35:51;;;;;;;1.80;1.10;;;6.70;64.20;;;;;;4992198;28;20199;-73
2023/01/10 04:38:17;;;;;;;1.80;1.10;;;6.70;63.50;;;;;;5000103;28;20177;-72
2023/01/10 04:40:43;;;;;;;1.77;1.10;;;6.80;62.20;;;;;;4988395;28;20202;-72
2023/01/10 04:43:10;;;;;;;1.80;1.10;;;6.70;62.40;;;;;;4999183;28;20234;-72
2023/01/10 04:45:36;;;;;;;1.80;1.05;;;6.90;62.30;;;;;;5011544;28;20192;-72
2023/01/10 04:48:02;;;;;;;1.80;1.10;;;6.50;63.10;;;;;;5011836;28;20170;-72
2023/01/10 04:50:27;;;;;;;1.80;1.10;;;6.20;66.00;;;;;;5007596;28;20188;-73
2023/01/10 04:52:53;;;;;;;3.10;1.57;;;6.30;68.10;;;;;;4993066;28;20217;-72
2023/01/10 04:55:19;;;;;;;1.70;1.00;;;6.20;66.80;;;;;;4983653;28;20228;-72
2023/01/10 04:57:45;;;;;;;1.80;1.10;;;6.70;62.60;;;;;;4992052;28;20287;-72
2023/01/10 05:00:11;;;;;;;1.90;1.10;;;7.30;58.00;;;;;;4991580;28;20197;-72
2023/01/10 05:02:42;;;;;;;1.80;1.10;;;7.80;54.00;;;;;;4989663;28;20714;-72
2023/01/10 05:05:12;;;;;;;1.85;1.10;;;8.20;51.10;;;;;;5006470;28;20640;-72
2023/01/10 05:07:38;;;;;;;1.70;1.00;;;7.40;53.80;;;;;;4992493;28;20230;-72
2023/01/10 05:10:06;;;;;;;2.00;1.27;;;7.10;56.40;;;;;;4991572;28;20205;-70
2023/01/10 05:12:31;;;;;;;1.80;1.10;;;6.90;56.80;;;;;;4989469;28;20194;-72
2023/01/10 05:14:57;;;;;;;1.90;1.40;;;6.70;59.00;;;;;;5003382;28;20177;-72
2023/01/10 05:17:23;;;;;;;1.90;1.20;;;6.70;59.60;;;;;;5001677;28;20475;-72
2023/01/10 05:19:48;;;;;;;2.00;1.30;;;7.10;58.10;;;;;;5003951;28;20288;-72
2023/01/10 05:22:14;;;;;;;1.80;1.10;;;8.10;53.90;;;;;;5011399;28;20251;-72
2023/01/10 05:24:40;;;;;;;1.90;1.10;;;7.70;52.30;;;;;;4998353;28;20277;-72
2023/01/10 05:27:06;;;;;;;1.90;1.10;;;7.40;54.60;;;;;;5011338;28;20409;-72
2023/01/10 05:29:32;;;;;;;1.80;1.13;;;7.40;55.30;;;;;;5011133;28;20184;-72
2023/01/10 05:31:58;;;;;;;1.80;1.10;;;7.60;53.60;;;;;;5011232;28;20259;-72
2023/01/10 05:34:23;;;;;;;1.80;1.10;;;7.20;54.90;;;;;;4994125;28;20186;-72
2023/01/10 05:36:49;;;;;;;1.80;1.20;;;6.90;57.80;;;;;;4991508;28;20171;-73
2023/01/10 05:39:15;;;;;;;1.80;1.10;;;6.80;58.60;;;;;;4991355;28;20238;-72
2023/01/10 05:41:41;;;;;;;1.80;1.10;;;7.20;55.40;;;;;;4998703;28;20194;-69
2023/01/10 05:44:06;;;;;;;1.83;1.20;;;7.00;56.60;;;;;;5001943;28;20444;-69
2023/01/10 05:46:32;;;;;;;1.80;1.10;;;6.90;57.90;;;;;;5004195;28;20177;-69
2023/01/10 05:48:58;;;;;;;1.80;1.10;;;6.70;58.20;;;;;;5014799;28;20415;-71
2023/01/10 05:51:23;;;;;;;1.80;1.10;;;6.30;60.70;;;;;;5014085;28;20283;-72
2023/01/10 05:53:49;;;;;;;1.80;1.10;;;6.20;64.00;;;;;;5014751;28;20284;-69
2023/01/10 05:56:15;;;;;;;1.80;1.10;;;6.10;64.60;;;;;;4996969;28;20675;-69
2023/01/10 05:58:40;;;;;;;2.43;1.50;;;6.30;63.00;;;;;;5000708;28;20192;-69
2023/01/10 06:01:06;;;;;;;1.80;1.10;;;6.30;61.90;;;;;;4999286;28;20210;-72
2023/01/10 06:03:32;;;;;;;1.85;1.20;;;6.40;63.00;;;;;;4991516;28;20252;-69
2023/01/10 06:05:57;;;;;;;1.70;1.10;;;6.40;61.30;;;;;;4993953;28;20213;-69
2023/01/10 06:08:24;;;;;;;1.80;1.10;;;6.50;60.60;;;;;;5005351;28;20543;-69
2023/01/10 06:10:49;;;;;;;1.80;1.10;;;6.80;58.20;;;;;;4994398;28;20276;-69
2023/01/10 06:13:15;;;;;;;1.87;1.10;;;7.20;57.00;;;;;;4994108;28;20664;-74
2023/01/10 06:15:41;;;;;;;1.80;1.10;;;7.30;55.30;;;;;;4993483;28;20178;-69
2023/01/10 06:18:07;;;;;;;1.80;1.10;;;7.20;55.20;;;;;;5001142;28;20264;-69
2023/01/10 06:20:33;;;;;;;1.70;1.10;;;7.20;54.90;;;;;;4995169;28;20193;-69
2023/01/10 06:23:03;;;;;;;1.80;1.10;;;7.20;55.00;;;;;;4999359;28;20189;-69
2023/01/10 06:25:29;;;;;;;1.70;1.00;;;7.70;53.00;;;;;;4993886;28;20918;-72
2023/01/10 06:27:55;;;;;;;1.80;1.10;;;8.20;50.00;;;;;;4995762;28;20655;-72
2023/01/10 06:30:20;;;;;;;1.80;1.10;;;8.50;48.30;;;;;;5004347;28;20190;-69
2023/01/10 06:32:46;;;;;;;1.77;1.07;;;8.10;48.50;;;;;;5006065;28;20451;-69
2023/01/10 06:35:12;;;;;;;1.80;1.10;;;7.60;50.20;;;;;;5005841;28;20182;-69
2023/01/10 06:37:37;;;;;;;1.80;1.10;;;8.30;49.40;;;;;;4988944;28;20193;-69
2023/01/10 06:40:04;;;;;;;1.73;1.10;;;8.40;47.10;;;;;;5001940;28;20356;-68
2023/01/10 06:42:30;;;;;;;1.90;1.30;;;8.60;46.10;;;;;;4993876;28;20198;-69
2023/01/10 06:44:55;;;;;;;1.80;1.10;;;8.60;44.90;;;;;;4994115;28;20170;-69
2023/01/10 06:47:21;;;;;;;1.80;1.10;;;8.40;46.50;;;;;;4993264;28;20185;-72
2023/01/10 06:49:47;;;;;;;2.40;1.57;;;8.10;46.10;;;;;;4995652;28;20177;-69
2023/01/10 06:52:12;;;;;;;1.80;1.10;;;7.60;48.40;;;;;;5005238;28;20535;-69
2023/01/10 06:54:38;;;;;;;2.00;1.20;;;8.00;47.80;;;;;;5013663;28;20521;-69
2023/01/10 06:57:04;;;;;;;1.87;1.10;;;8.30;47.80;;;;;;5002466;28;20699;-73
2023/01/10 06:59:30;;;;;;;1.75;1.05;;;7.80;47.70;;;;;;4996803;28;20189;-70
2023/01/10 07:01:55;;;;;;;1.90;1.20;;;7.90;47.70;;;;;;4987411;28;20255;-70
2023/01/10 07:04:21;;;;;;;1.80;1.10;;;7.50;48.70;;;;;;4993991;28;20351;-69
2023/01/10 07:06:46;;;;;;;1.80;1.10;;;7.80;47.70;;;;;;4996838;28;20260;-70
2023/01/10 07:09:12;;;;;;;1.70;1.10;;;8.50;47.10;;;;;;4999991;28;20185;-71
2023/01/10 07:11:38;;;;;;;1.87;1.20;;;8.80;44.50;;;;;;4993112;28;20248;-68
2023/01/10 07:14:04;;;;;;;1.90;1.20;;;8.60;45.60;;;;;;4998621;28;20591;-71
2023/01/10 07:16:29;;;;;;;1.80;1.10;;;8.50;47.00;;;;;;5001481;28;20184;-69
2023/01/10 07:18:55;;;;;;;1.80;1.20;;;9.00;44.10;;;;;;5001614;28;20280;-68
2023/01/10 07:21:20;;;;;;;1.80;1.20;;;9.00;43.40;;;;;;4999806;28;20211;-69
2023/01/10 07:23:49;;;;;;;1.73;1.10;;;8.80;44.50;;;;;;4992584;28;20180;-68
2023/01/10 07:26:16;;;;;;;1.80;1.10;;;8.50;44.90;;;;;;4991748;28;20554;-69
2023/01/10 07:28:43;;;;;;;1.90;1.20;;;8.80;45.30;;;;;;5001367;28;20275;-68
2023/01/10 07:31:10;;;;;;;1.90;1.20;;;8.60;44.90;;;;;;4997272;28;20198;-73
2023/01/10 07:33:35;;;;;;;1.80;1.13;;;8.60;45.00;;;;;;4992070;28;20610;-72
2023/01/10 07:36:01;;;;;;;1.80;1.10;;;8.60;44.40;;;;;;4992178;28;20178;-69
2023/01/10 07:38:27;;;;;;;1.83;1.10;;;8.80;44.10;;;;;;4991059;28;20236;-69
2023/01/10 07:40:53;;;;;;;1.80;1.10;;;8.90;43.70;;;;;;4993857;28;20529;-69
2023/01/10 07:43:19;;;;;;;1.70;1.10;;;8.90;43.60;;;;;;4996076;28;20186;-72
2023/01/10 07:45:44;;;;;;;1.80;1.20;;;8.70;44.60;;;;;;4991950;28;20182;-69
2023/01/10 07:48:10;;;;;;;1.80;1.10;;;8.90;42.90;;;;;;4984244;28;20632;-69
2023/01/10 07:50:36;;;;;;;1.80;1.10;;;9.10;42.90;;;;;;4999784;28;20647;-69
2023/01/10 07:53:04;;;;;;;1.70;1.10;;;8.90;42.80;;;;;;5006846;28;20174;-69
2023/01/10 07:55:30;;;;;;;1.80;1.10;;;8.80;43.60;;;;;;4999233;28;20252;-70
2023/01/10 07:57:56;;;;;;;1.90;1.17;;;8.80;43.50;;;;;;4983672;28;20185;-68
2023/01/10 08:00:21;;;;;;;1.80;1.20;;;9.10;42.80;;;;;;4985699;28;20232;-72
2023/01/10 08:02:51;;;;;;;1.80;1.10;;;9.30;42.60;;;;;;5003411;28;20197;-69
2023/01/10 08:05:17;;;;;;;1.80;1.20;;;9.30;41.30;;;;;;5004191;28;20169;-68
2023/01/10 08:07:43;;;;;;;2.33;1.60;;;9.10;41.50;;;;;;4993110;28;20182;-69
2023/01/10 08:10:09;;;;;;;1.80;1.10;;;9.30;41.40;;;;;;4986570;28;20217;-70
2023/01/10 08:12:35;;;;;;;1.80;1.20;;;9.30;40.30;;;;;;4992059;28;20201;-69
2023/01/10 08:15:00;;;;;;;1.80;1.10;;;9.20;40.90;;;;;;4985946;28;20559;-69
2023/01/10 08:17:26;;;;;;;1.80;1.10;;;9.00;41.60;;;;;;4993823;28;20551;-70
2023/01/10 08:19:52;;;;;;;1.90;1.30;;;9.10;41.60;;;;;;4998184;28;20202;-69
2023/01/10 08:22:17;;;;;;;1.80;1.20;;;9.40;41.10;;;;;;4999182;28;20271;-69
2023/01/10 08:24:43;;;;;;;1.80;1.10;;;9.40;41.30;;;;;;5003661;28;20615;-69
2023/01/10 08:27:09;;;;;;;1.80;1.10;;;9.30;41.00;;;;;;5007026;28;20253;-69
2023/01/10 08:29:34;;;;;;;1.80;1.10;;;8.90;40.50;;;;;;4989716;28;20190;-69
2023/01/10 08:32:00;;;;;;;1.87;1.20;;;8.90;42.90;;;;;;4984757;28;20452;-69
2023/01/10 08:34:26;;;;;;;3.10;1.50;;;8.60;41.80;;;;;;4999752;28;20484;-68
2023/01/10 08:36:52;;;;;;;1.80;1.10;;;8.60;42.30;;;;;;4991825;28;20437;-73
2023/01/10 08:39:21;;;;;;;1.80;1.10;;;8.70;42.60;;;;;;4991094;28;20190;-74
2023/01/10 08:41:48;;;;;;;1.80;1.10;;;8.80;41.70;;;;;;4991098;28;20202;-74
2023/01/10 08:44:14;;;;;;;1.85;1.17;;;8.90;41.30;;;;;;5000027;28;20566;-74
2023/01/10 08:46:41;;;;;;;2.08;1.40;;;9.10;42.40;;;;;;5006559;28;20186;-76
2023/01/10 08:49:07;;;;;;;1.80;1.10;;;9.10;40.80;;;;;;4984896;28;20175;-75
2023/01/10 08:51:32;;;;;;;1.70;1.10;;;9.30;41.30;;;;;;4987735;28;20600;-71
2023/01/10 08:53:58;;;;;;;1.83;1.20;;;9.50;41.70;;;;;;4985269;28;20186;-71
2023/01/10 08:56:24;;;;;;;1.80;1.20;;;9.60;39.90;;;;;;4991892;28;20619;-71
2023/01/10 08:58:50;;;;;;;1.77;1.10;;;9.20;40.80;;;;;;5002864;28;20185;-71
2023/01/10 09:01:15;;;;;;;1.90;1.10;;;9.50;40.60;;;;;;4990811;28;20248;-71
2023/01/10 09:03:41;;;;;;;1.80;1.10;;;9.60;39.00;;;;;;4991735;28;20503;-71
2023/01/10 09:06:07;;;;;;;1.90;1.10;;;8.80;42.00;;;;;;4980388;28;20581;-71
2023/01/10 09:08:34;;;;;;;1.80;1.10;;;8.60;42.50;;;;;;5007218;28;20260;-71
2023/01/10 09:11:00;;;;;;;1.90;1.10;;;8.10;44.00;;;;;;4992616;28;20213;-72
2023/01/10 09:13:27;;;;;;;1.90;1.20;;;7.80;45.20;;;;;;4997831;28;20186;-71
2023/01/10 09:15:53;;;;;;;1.75;1.10;;;8.10;46.30;;;;;;4988636;28;20607;-69
2023/01/10 09:18:19;;;;;;;1.80;1.10;;;8.70;44.10;;;;;;4991961;28;20178;-69
2023/01/10 09:20:45;;;;;;;1.80;1.10;;;8.60;44.30;;;;;;4996542;28;20206;-70
2023/01/10 09:23:18;;;;;;;1.77;1.10;;;8.70;42.70;;;;;;5001379;28;20181;-70
2023/01/10 09:25:46;;;;;;;1.85;1.20;;;9.10;41.90;;;;;;5015240;28;20165;-70
2023/01/10 09:28:12;;;;;;;2.42;1.35;;;8.70;42.40;;;;;;5003182;28;20188;-70
2023/01/10 09:30:38;;;;;;;3.55;1.75;;;8.80;42.20;;;;;;4993546;28;20200;-74
2023/01/10 09:33:04;;;;;;;1.80;1.10;;;9.40;41.70;;;;;;4991143;28;20186;-70
2023/01/10 09:35:30;;;;;;;1.80;1.10;;;9.70;40.10;;;;;;4992551;28;20420;-71
2023/01/10 09:38:02;;;;;;;1.80;1.10;;;9.20;40.00;;;;;;4995284;28;20583;-72
2023/01/10 09:40:52;;;;;;;2.55;1.70;;;8.40;42.60;;;;;;4995039;28;20210;-70
2023/01/10 09:43:39;;;;;;;1.80;1.20;;;8.50;42.60;;;;;;5007363;28;20186;-70
2023/01/10 09:46:16;;;;;;;2.25;1.20;;;8.80;40.50;;;;;;5004429;28;20269;-74
2023/01/10 09:48:50;;;;;;;1.80;1.10;;;9.00;41.10;;;;;;4980933;28;20178;-70
2023/01/10 09:51:43;;;;;;;1.90;1.20;;;9.40;39.00;;;;;;5001036;28;20196;-70
2023/01/10 09:54:17;;;;;;;1.80;1.10;;;9.10;39.10;;;;;;4998192;28;20186;-71
2023/01/10 09:56:44;;;;;;;1.80;1.10;;;9.00;40.00;;;;;;4986051;28;20240;-74
2023/01/10 09:59:17;;;;;;;1.80;1.10;;;8.80;40.30;;;;;;5001555;28;20283;-71
2023/01/10 10:01:45;;;;;;;1.80;1.10;;;8.90;40.60;;;;;;4993937;28;20205;-71
2023/01/10 10:04:26;;;;;;;1.75;1.10;;;9.00;40.60;;;;;;4998753;28;20915;-73
2023/01/10 10:06:52;;;;;;;1.80;1.10;;;8.10;42.80;;;;;;4991148;28;20203;-71
2023/01/10 10:09:26;;;;;;;1.80;1.10;;;8.80;42.80;;;;;;4999338;28;20185;-73
2023/01/10 10:11:57;;;;;;;1.85;1.15;;;8.20;42.10;;;;;;5006017;28;20218;-71
2023/01/10 10:14:33;;;;;;;1.90;1.20;;;8.40;42.70;;;;;;5007621;28;20241;-70
2023/01/10 10:17:13;;;;;;;2.10;1.30;;;8.60;41.70;;;;;;4995594;28;20291;-70
2023/01/10 10:20:11;;;;;;;1.85;1.10;;;9.40;38.90;;;;;;5013726;28;20180;-69
2023/01/10 10:23:10;;;;;;;1.90;1.20;;;9.00;38.50;;;;;;4982377;28;20219;-69
2023/01/10 10:25:59;;;;;;;1.80;1.10;;;8.90;40.90;;;;;;5002872;28;20518;-71
2023/01/10 10:28:31;;;;;;;1.90;1.13;;;9.00;39.80;;;;;;5002591;28;20575;-69
2023/01/10 10:30:59;;;;;;;1.80;1.10;;;9.00;40.00;;;;;;4982999;28;20679;-69
2023/01/10 10:33:31;;;;;;;1.90;1.20;;;9.00;39.20;;;;;;4989583;28;20649;-69
2023/01/10 10:36:03;;;;;;;1.80;1.10;;;9.30;39.70;;;;;;4994256;28;20215;-69
2023/01/10 10:38:33;;;;;;;2.00;1.10;;;9.90;38.30;;;;;;4993954;28;20283;-72
2023/01/10 10:41:00;;;;;;;1.90;1.10;;;10.50;34.50;;;;;;4993932;28;20227;-70
2023/01/10 10:43:31;;;;;;;1.90;1.10;;;10.60;33.60;;;;;;4993536;28;20177;-69
2023/01/10 10:46:01;;;;;;;1.95;1.20;;;10.30;34.50;;;;;;4992880;28;20524;-69
2023/01/10 10:48:35;;;;;;;2.00;1.15;;;9.10;37.50;;;;;;4992823;28;20269;-69
2023/01/10 10:51:35;;;;;;;2.00;1.10;;;9.50;37.10;;;;;;4995133;28;20207;-70
2023/01/10 10:54:01;;;;;;;2.25;1.33;;;8.90;37.50;;;;;;4997455;28;20208;-70
2023/01/10 10:56:28;;;;;;;2.00;1.20;;;9.20;38.30;;;;;;4994638;28;20258;-70
2023/01/10 10:58:56;;;;;;;2.03;1.20;;;9.90;35.50;;;;;;4998818;28;20188;-69
2023/01/10 11:01:22;;;;;;;1.92;1.10;;;9.80;35.60;;;;;;4991605;28;20646;-69
2023/01/10 11:04:12;;;;;;;2.10;1.50;;;10.30;33.50;;;;;;4988594;28;20264;-69
2023/01/10 11:06:47;;;;;;;2.00;1.10;;;9.70;35.40;;;;;;4993813;28;20189;-69
2023/01/10 11:09:15;;;;;;;2.10;1.10;;;9.80;34.40;;;;;;4993765;28;20160;-69
2023/01/10 11:11:49;;;;;;;2.10;1.23;;;9.60;34.30;;;;;;4992395;28;20211;-72
2023/01/10 11:14:14;;;;;;;2.00;1.10;;;9.80;33.90;;;;;;4993574;28;20185;-69
2023/01/10 11:16:43;;;;;;;2.20;1.20;;;9.80;35.60;;;;;;4984924;28;20178;-69
2023/01/10 11:19:25;;;;;;;2.10;1.10;;;9.40;34.70;;;;;;4992901;28;20185;-69
2023/01/10 11:22:06;;;;;;;2.10;1.10;;;10.20;33.90;;;;;;4981817;28;20209;-73
2023/01/10 11:24:34;;;;;;;2.27;1.10;;;10.30;31.40;;;;;;4990817;28;20647;-72
2023/01/10 11:27:25;;;;;;;2.25;1.20;;;10.10;31.60;;;;;;4987065;28;20468;-72
2023/01/10 11:29:56;;;;;;;2.15;1.10;;;9.80;34.00;;;;;;4986023;28;20178;-68
2023/01/10 11:32:32;;;;;;;4.18;2.40;;;10.00;32.90;;;;;;4992998;28;20216;-69
2023/01/10 11:35:06;;;;;;;2.30;1.30;;;9.70;33.50;;;;;;4984479;28;20557;-71
2023/01/10 11:37:34;;;;;;;2.13;1.10;;;9.80;33.90;;;;;;4993177;28;20926;-69
2023/01/10 11:40:24;;;;;;;2.35;1.30;;;9.40;34.50;;;;;;4992946;28;20212;-69
2023/01/10 11:42:56;;;;;;;2.30;1.08;;;9.70;34.70;;;;;;4992557;28;20205;-69
2023/01/10 11:45:31;;;;;;;2.30;1.20;;;10.20;32.70;;;;;;4993082;28;20198;-69
2023/01/10 11:48:07;;;;;;;2.13;1.10;;;10.30;31.70;;;;;;4992933;28;20158;-69
2023/01/10 11:50:41;;;;;;;2.20;1.10;;;10.90;31.30;;;;;;4982343;28;20181;-69
2023/01/10 11:53:39;;;;;;;2.22;1.10;;;11.60;30.80;;;;;;4988139;28;20267;-69
2023/01/10 11:56:06;;;;;;;2.60;1.55;;;11.10;29.70;;;;;;4984093;28;20288;-69
2023/01/10 11:58:34;;;;;;;2.42;1.20;;;10.80;30.30;;;;;;4992946;28;20174;-68
2023/01/10 12:01:00;;;;;;;2.42;1.30;;;10.10;31.50;;;;;;4991031;28;20785;-69
2023/01/10 12:03:37;;;;;;;2.40;1.20;;;10.10;31.30;;;;;;4992667;28;20264;-69
2023/01/10 12:06:07;;;;;;;2.40;1.10;;;10.70;31.00;;;;;;4992723;28;20409;-73
2023/01/10 12:08:37;;;;;;;2.28;1.10;;;11.40;30.30;;;;;;4992755;28;20404;-71
2023/01/10 12:11:16;;;;;;;2.40;1.10;;;10.90;29.90;;;;;;4982711;28;20206;-69
2023/01/10 12:13:51;;;;;;;2.42;1.20;;;10.90;29.60;;;;;;4983077;28;20174;-69
2023/01/10 12:16:21;;;;;;;2.43;1.10;;;10.40;30.60;;;;;;4992611;28;20819;-69
2023/01/10 12:18:49;;;;;;;2.43;1.10;;;10.50;29.80;;;;;;4990765;28;20512;-69
2023/01/10 12:21:29;;;;;;;2.57;1.30;;;11.10;30.70;;;;;;4983825;28;20572;-69
2023/01/10 12:23:59;;;;;;;2.50;1.20;;;11.00;29.20;;;;;;4986193;28;20407;-69
2023/01/10 12:26:28;;;;;;;2.42;1.10;;;11.20;29.40;;;;;;4991545;28;20451;-69
2023/01/10 12:28:58;;;;;;;2.47;1.10;;;11.10;29.00;;;;;;4991708;28;20207;-69
2023/01/10 12:31:26;;;;;;;2.40;1.10;;;10.70;29.30;;;;;;4988997;28;20221;-69
2023/01/10 12:34:03;;;;;;;2.53;1.20;;;10.60;30.10;;;;;;4991757;28;20253;-69
2023/01/10 12:36:47;;;;;;;2.50;1.10;;;10.30;29.60;;;;;;4992054;28;20531;-72
2023/01/10 12:39:22;;;;;;;2.60;1.40;;;10.10;30.30;;;;;;4992035;28;20182;-68
2023/01/10 12:45:06;;;;;;;2.25;1.08;;;10.30;30.00;;;;;;4992047;28;20192;-68
2023/01/10 12:48:09;;;;;;;2.28;1.10;;;10.30;29.90;;;;;;4989201;28;20182;-69
2023/01/10 12:50:45;;;;;;;2.30;1.20;;;10.10;30.40;;;;;;4990608;28;20184;-69
2023/01/10 12:53:17;;;;;;;2.30;1.13;;;10.40;30.30;;;;;;4984202;28;20679;-69
2023/01/10 12:55:44;;;;;;;2.40;1.20;;;11.30;29.40;;;;;;4983786;28;20200;-69
2023/01/10 12:58:20;;;;;;;2.33;1.20;;;10.90;28.70;;;;;;4991164;28;20184;-72
2023/01/10 13:00:51;;;;;;;2.40;1.13;;;11.70;28.50;;;;;;4983955;28;20197;-71
2023/01/10 13:03:23;;;;;;;2.40;1.10;;;11.80;27.40;;;;;;4991899;28;20162;-69
2023/01/10 13:05:50;;;;;;;2.60;1.20;;;12.40;28.60;;;;;;4991783;28;20181;-69
2023/01/10 13:08:20;;;;;;;2.67;1.17;;;12.70;27.80;;;;;;4991145;28;20490;-69
2023/01/10 13:10:50;;;;;;;2.60;1.10;;;12.60;27.90;;;;;;4983901;28;20781;-69
2023/01/10 13:13:28;;;;;;;2.63;1.10;;;11.80;26.70;;;;;;4991908;28;20420;-69
2023/01/10 13:16:12;;;;;;;2.60;1.10;;;11.10;27.70;;;;;;4991493;28;20176;-69
2023/01/10 13:18:59;;;;;;;2.63;1.20;;;10.50;28.60;;;;;;4991058;28;20552;-69